Time;durP1;ratioP1;P1;durP2;ratioP2;P2;SDS_P1;SDS_P2;PMS_P1;PMS_P2;Temp;Humidity;BMP_temperature;BMP_pressure;BME280_temperature;BME280_humidity;BME280_pressure;Samples;Min_cycle;Max_cycle;Signal;HPM_P1;HPM_P2
2023/09/22 00:00:01;;;;;;;7.47;4.93;;;22.30;99.90;;;;;;5025489;28;20366;-68
2023/09/22 00:02:28;;;;;;;5.10;4.60;;;22.10;99.90;;;;;;5025593;28;20292;-68
2023/09/22 00:04:55;;;;;;;6.68;5.15;;;22.20;99.90;;;;;;5025912;28;20251;-69
2023/09/22 00:07:23;;;;;;;4.90;4.22;;;22.20;99.90;;;;;;5026140;28;20695;-70
2023/09/22 00:09:50;;;;;;;4.88;4.47;;;22.30;99.90;;;;;;5026504;28;20318;-70
2023/09/22 00:12:17;;;;;;;4.85;4.45;;;22.30;99.90;;;;;;5026613;28;20233;-69
2023/09/22 00:14:45;;;;;;;8.30;4.10;;;22.30;99.90;;;;;;5025825;28;20932;-69
2023/09/22 00:17:12;;;;;;;12.23;5.20;;;22.30;99.90;;;;;;5025978;28;20278;-70
2023/09/22 00:19:39;;;;;;;5.82;4.75;;;22.30;99.90;;;;;;5025766;28;20240;-70
2023/09/22 00:22:05;;;;;;;5.25;4.75;;;22.20;99.90;;;;;;5025454;28;20314;-69
2023/09/22 00:24:34;;;;;;;6.93;4.85;;;22.30;99.90;;;;;;5024709;28;21051;-69
2023/09/22 00:27:01;;;;;;;8.82;5.13;;;22.30;99.90;;;;;;5024997;28;20323;-68
2023/09/22 00:29:27;;;;;;;8.10;5.05;;;22.30;99.90;;;;;;5024705;28;20252;-69
2023/09/22 00:31:55;;;;;;;5.82;4.53;;;22.20;99.90;;;;;;5024844;28;20692;-68
2023/09/22 00:34:22;;;;;;;5.90;5.30;;;22.30;99.90;;;;;;5025385;28;20216;-68
2023/09/22 00:36:52;;;;;;;5.80;5.28;;;22.20;99.90;;;;;;5025176;28;20204;-69
2023/09/22 00:39:19;;;;;;;5.88;5.32;;;22.10;99.90;;;;;;5016469;28;20575;-69
2023/09/22 00:41:47;;;;;;;7.60;5.20;;;22.10;99.90;;;;;;5012896;28;20327;-69
2023/09/22 00:44:15;;;;;;;6.70;5.70;;;22.10;99.90;;;;;;5025387;28;20208;-69
2023/09/22 00:46:42;;;;;;;7.43;5.57;;;22.10;99.90;;;;;;5025982;28;20627;-69
2023/09/22 00:49:10;;;;;;;6.30;5.80;;;22.10;99.90;;;;;;5025472;28;20323;-70
2023/09/22 00:51:37;;;;;;;5.88;5.25;;;22.10;99.90;;;;;;5024925;28;20268;-69
2023/09/22 00:54:04;;;;;;;7.35;5.80;;;22.10;99.90;;;;;;5025285;28;20730;-69
2023/09/22 00:56:32;;;;;;;6.47;5.68;;;22.10;99.90;;;;;;5025422;28;20290;-68
2023/09/22 00:59:00;;;;;;;6.15;5.65;;;22.10;99.90;;;;;;5024922;28;20307;-68
2023/09/22 01:01:27;;;;;;;7.85;6.30;;;22.10;99.90;;;;;;5024728;28;20683;-69
2023/09/22 01:03:55;;;;;;;6.47;5.97;;;22.10;99.90;;;;;;5025026;28;20300;-69
2023/09/22 01:06:22;;;;;;;6.45;5.80;;;22.10;99.90;;;;;;5024524;28;20267;-70
2023/09/22 01:08:49;;;;;;;7.30;5.70;;;22.10;99.90;;;;;;5024817;28;20748;-69
2023/09/22 01:11:16;;;;;;;8.40;6.22;;;22.10;99.90;;;;;;5024499;28;20197;-70
2023/09/22 01:13:43;;;;;;;6.13;5.57;;;21.90;99.90;;;;;;5024313;28;20209;-70
2023/09/22 01:16:11;;;;;;;7.38;6.20;;;21.90;99.90;;;;;;5024996;28;20213;-70
2023/09/22 01:18:39;;;;;;;7.53;6.35;;;21.80;99.90;;;;;;5025042;28;20922;-69
2023/09/22 01:21:05;;;;;;;7.78;6.30;;;21.90;99.90;;;;;;5022905;28;20209;-70
2023/09/22 01:23:34;;;;;;;7.15;6.50;;;21.90;99.90;;;;;;5024889;28;20328;-70
2023/09/22 01:26:01;;;;;;;6.18;5.68;;;21.90;99.90;;;;;;5024903;28;20208;-70
2023/09/22 01:28:28;;;;;;;6.88;6.18;;;21.80;99.90;;;;;;5024858;28;20235;-70
2023/09/22 01:30:55;;;;;;;7.63;5.93;;;21.70;99.90;;;;;;5024735;28;20280;-70
2023/09/22 01:33:22;;;;;;;6.70;6.05;;;21.70;99.90;;;;;;5024542;28;20713;-69
2023/09/22 01:35:48;;;;;;;10.63;6.05;;;21.70;99.90;;;;;;5024332;28;20205;-70
2023/09/22 01:38:18;;;;;;;6.15;5.57;;;21.50;99.90;;;;;;5024696;28;20255;-69
2023/09/22 01:40:46;;;;;;;9.80;5.90;;;21.40;99.90;;;;;;5024207;28;20262;-69
2023/09/22 01:43:14;;;;;;;6.25;5.75;;;21.20;99.90;;;;;;5024810;28;20306;-70
2023/09/22 01:45:41;;;;;;;7.88;6.55;;;21.10;99.90;;;;;;5024362;28;20773;-70
2023/09/22 01:48:09;;;;;;;7.13;6.50;;;20.80;99.90;;;;;;5024671;28;20236;-69
2023/09/22 01:50:37;;;;;;;7.57;6.70;;;20.70;99.90;;;;;;5024619;28;20304;-69
2023/09/22 01:53:04;;;;;;;7.03;6.32;;;20.60;99.90;;;;;;5024449;28;20245;-69
2023/09/22 01:55:31;;;;;;;7.23;6.07;;;20.60;99.90;;;;;;5024580;28;20295;-69
2023/09/22 01:58:00;;;;;;;7.13;6.43;;;20.40;99.90;;;;;;5024927;28;20331;-69
2023/09/22 02:00:27;;;;;;;6.93;5.90;;;20.50;99.90;;;;;;5023858;28;20864;-69
2023/09/22 02:02:55;;;;;;;8.10;6.83;;;20.50;99.90;;;;;;5024389;28;20691;-69
2023/09/22 02:05:22;;;;;;;7.80;6.43;;;20.40;99.90;;;;;;5024227;28;20205;-69
2023/09/22 02:07:50;;;;;;;6.70;6.10;;;20.40;99.90;;;;;;5023946;28;20754;-70
2023/09/22 02:10:17;;;;;;;7.47;6.07;;;20.30;99.90;;;;;;5024235;28;20216;-69
2023/09/22 02:12:44;;;;;;;7.60;6.97;;;20.20;99.90;;;;;;5023989;28;20323;-70
2023/09/22 02:15:14;;;;;;;6.60;6.00;;;20.20;99.90;;;;;;5024354;28;20246;-70
2023/09/22 02:17:41;;;;;;;6.90;6.30;;;20.20;99.90;;;;;;5019503;28;20213;-67
2023/09/22 02:20:22;;;;;;;6.57;6.03;;;20.30;99.90;;;;;;5020545;28;20296;-69
2023/09/22 02:22:50;;;;;;;6.77;5.73;;;20.30;99.90;;;;;;5015193;28;20197;-69
2023/09/22 02:25:19;;;;;;;7.80;6.10;;;20.40;99.90;;;;;;5014895;28;20236;-69
2023/09/22 02:27:47;;;;;;;6.83;5.73;;;20.50;99.90;;;;;;5026325;28;20220;-69
2023/09/22 02:30:16;;;;;;;6.32;5.72;;;20.60;99.90;;;;;;5026146;28;20212;-69
2023/09/22 02:32:46;;;;;;;6.07;5.60;;;20.80;99.90;;;;;;5026400;28;20228;-70
2023/09/22 02:35:13;;;;;;;6.13;5.60;;;20.80;99.90;;;;;;5026524;28;20262;-69
2023/09/22 02:37:41;;;;;;;5.38;4.97;;;21.00;99.90;;;;;;5017783;28;20746;-69
2023/09/22 02:40:09;;;;;;;5.85;5.30;;;21.10;99.90;;;;;;5017064;28;20208;-69
2023/09/22 02:42:39;;;;;;;5.72;5.22;;;21.10;99.90;;;;;;5024767;28;20231;-69
2023/09/22 02:45:08;;;;;;;5.72;5.13;;;21.10;99.90;;;;;;5026371;28;20303;-69
2023/09/22 02:47:37;;;;;;;5.20;4.80;;;20.80;99.90;;;;;;5021340;28;20683;-69
2023/09/22 02:50:05;;;;;;;6.10;4.85;;;20.70;99.90;;;;;;5026802;28;20245;-69
2023/09/22 02:52:34;;;;;;;6.20;5.13;;;20.50;99.90;;;;;;5026563;28;20839;-70
2023/09/22 02:55:01;;;;;;;4.60;4.30;;;20.50;99.90;;;;;;5027285;28;20292;-69
2023/09/22 02:57:28;;;;;;;4.22;3.92;;;20.50;99.90;;;;;;5026603;28;20289;-69
2023/09/22 02:59:55;;;;;;;4.90;4.30;;;20.50;99.90;;;;;;5026831;28;20208;-69
2023/09/22 03:02:24;;;;;;;6.47;4.33;;;20.30;99.90;;;;;;5027153;28;20311;-69
2023/09/22 03:04:53;;;;;;;4.67;4.33;;;20.30;99.90;;;;;;5027200;28;20205;-69
2023/09/22 03:07:20;;;;;;;4.80;4.30;;;20.30;99.90;;;;;;5026824;28;20209;-69
2023/09/22 03:09:47;;;;;;;4.30;4.00;;;20.30;99.90;;;;;;5026732;28;20754;-69
2023/09/22 03:12:14;;;;;;;4.57;4.17;;;20.30;99.90;;;;;;5026666;28;20241;-69
2023/09/22 03:14:41;;;;;;;4.30;4.00;;;20.10;99.90;;;;;;5026198;28;20212;-69
2023/09/22 03:17:10;;;;;;;4.00;3.47;;;20.00;99.90;;;;;;5026427;28;20676;-69
2023/09/22 03:19:37;;;;;;;2.80;2.70;;;19.80;99.90;;;;;;5026853;28;20286;-69
2023/09/22 03:22:05;;;;;;;2.90;2.70;;;19.70;99.90;;;;;;5021098;28;20215;-69
2023/09/22 03:24:32;;;;;;;4.00;2.70;;;19.60;99.90;;;;;;5026460;28;20291;-69
2023/09/22 03:26:59;;;;;;;2.77;2.57;;;19.60;99.90;;;;;;5026367;28;20231;-67
2023/09/22 03:29:26;;;;;;;2.43;2.23;;;19.60;99.90;;;;;;5005958;28;20255;-67
2023/09/22 03:31:53;;;;;;;2.00;1.77;;;19.50;99.90;;;;;;5006513;28;20229;-69
2023/09/22 03:34:21;;;;;;;2.30;2.10;;;19.20;99.90;;;;;;5006664;28;20676;-69
2023/09/22 03:36:49;;;;;;;1.70;1.60;;;19.20;99.90;;;;;;5006046;28;20244;-69
2023/09/22 03:39:21;;;;;;;1.80;1.70;;;19.00;99.90;;;;;;5006817;28;20320;-69
2023/09/22 03:41:52;;;;;;;2.07;1.97;;;18.90;99.90;;;;;;5006594;28;20229;-69
2023/09/22 03:44:19;;;;;;;4.30;1.77;;;18.80;99.90;;;;;;5011861;28;20207;-69
2023/09/22 03:46:46;;;;;;;1.70;1.60;;;18.70;99.90;;;;;;5026532;28;20303;-69
2023/09/22 03:49:13;;;;;;;1.63;1.53;;;18.70;99.90;;;;;;5025861;28;20240;-69
2023/09/22 03:51:39;;;;;;;1.90;1.80;;;18.60;99.90;;;;;;5025948;28;20212;-69
2023/09/22 03:54:08;;;;;;;2.00;1.80;;;18.70;99.90;;;;;;5025731;28;20237;-69
2023/09/22 03:56:38;;;;;;;2.23;2.07;;;18.60;99.90;;;;;;5025920;28;20204;-69
2023/09/22 03:59:06;;;;;;;2.60;2.40;;;18.60;99.90;;;;;;5026182;28;20201;-69
2023/09/22 04:01:35;;;;;;;2.50;2.27;;;18.60;99.90;;;;;;5025995;28;20567;-69
2023/09/22 04:04:03;;;;;;;3.13;2.30;;;18.50;99.90;;;;;;5025706;28;20308;-69
2023/09/22 04:06:30;;;;;;;2.10;2.00;;;18.40;99.90;;;;;;5025551;28;20209;-69
2023/09/22 04:08:58;;;;;;;5.33;2.20;;;18.10;99.90;;;;;;5025196;28;20237;-69
2023/09/22 04:11:25;;;;;;;2.37;2.27;;;18.10;99.90;;;;;;5025332;28;20216;-69
2023/09/22 04:13:53;;;;;;;2.37;2.17;;;18.20;99.90;;;;;;5025327;28;20244;-69
2023/09/22 04:16:20;;;;;;;5.57;1.90;;;18.20;99.90;;;;;;5025538;28;20735;-68
2023/09/22 04:18:53;;;;;;;2.70;2.30;;;18.10;99.90;;;;;;5025462;28;20299;-69
2023/09/22 04:21:21;;;;;;;2.47;1.77;;;18.10;99.90;;;;;;5025668;28;20236;-69
2023/09/22 04:23:51;;;;;;;2.73;2.10;;;18.20;99.90;;;;;;5025778;28;20960;-69
2023/09/22 04:26:18;;;;;;;1.80;1.70;;;18.20;99.90;;;;;;5025166;28;20212;-69
2023/09/22 04:28:46;;;;;;;1.47;1.47;;;18.30;99.90;;;;;;5025376;28;20264;-69
2023/09/22 04:31:14;;;;;;;2.67;1.70;;;18.30;99.90;;;;;;5025467;28;20223;-69
2023/09/22 04:33:41;;;;;;;3.30;1.90;;;18.30;99.90;;;;;;5025192;28;20295;-69
2023/09/22 04:36:10;;;;;;;2.30;1.80;;;18.50;99.90;;;;;;5025583;28;20301;-69
2023/09/22 04:38:38;;;;;;;1.70;1.60;;;18.60;99.90;;;;;;5025078;28;20212;-69
2023/09/22 04:41:06;;;;;;;1.70;1.60;;;18.70;99.90;;;;;;5025214;28;20327;-67
2023/09/22 04:43:35;;;;;;;1.93;1.80;;;18.90;99.90;;;;;;5024197;28;20715;-67
2023/09/22 04:46:03;;;;;;;2.30;1.50;;;19.00;99.90;;;;;;5024922;28;20213;-67
2023/09/22 04:48:32;;;;;;;2.10;1.60;;;18.70;99.90;;;;;;5023877;28;20205;-67
2023/09/22 04:50:58;;;;;;;2.30;2.10;;;18.50;99.90;;;;;;5022446;28;20217;-69
2023/09/22 04:53:25;;;;;;;1.50;1.40;;;18.50;99.90;;;;;;5005240;28;20326;-69
2023/09/22 04:56:00;;;;;;;1.60;1.50;;;18.30;99.90;;;;;;5005398;28;20205;-69
2023/09/22 04:58:27;;;;;;;1.60;1.50;;;18.40;99.90;;;;;;5005287;28;20193;-69
2023/09/22 05:00:55;;;;;;;1.63;1.53;;;18.30;99.90;;;;;;5005176;28;20241;-69
2023/09/22 05:03:22;;;;;;;1.87;1.60;;;18.30;99.90;;;;;;5005008;28;20220;-69
2023/09/22 05:05:51;;;;;;;2.80;1.37;;;18.30;99.90;;;;;;5005455;28;20198;-69
2023/09/22 05:08:18;;;;;;;2.87;2.10;;;18.30;99.90;;;;;;5024626;28;20271;-67
2023/09/22 05:10:48;;;;;;;1.77;1.47;;;18.60;99.90;;;;;;5024677;28;20233;-67
2023/09/22 05:13:18;;;;;;;3.90;1.80;;;18.70;99.90;;;;;;5025055;28;20299;-67
2023/09/22 05:15:45;;;;;;;1.70;1.60;;;18.90;99.90;;;;;;5024804;28;20211;-67
2023/09/22 05:18:15;;;;;;;1.87;1.47;;;19.00;99.90;;;;;;5024891;28;20215;-68
2023/09/22 05:20:42;;;;;;;2.00;1.47;;;19.20;99.90;;;;;;5024720;28;20266;-69
2023/09/22 05:23:11;;;;;;;1.47;1.37;;;19.20;99.90;;;;;;5025032;28;20323;-68
2023/09/22 05:25:41;;;;;;;1.40;1.30;;;19.10;99.90;;;;;;5024869;28;20212;-68
2023/09/22 05:28:09;;;;;;;2.03;1.47;;;19.00;99.90;;;;;;5024514;28;20315;-68
2023/09/22 05:30:38;;;;;;;1.90;1.80;;;18.60;99.90;;;;;;5024280;28;20236;-68
2023/09/22 05:33:07;;;;;;;2.10;1.70;;;18.40;99.90;;;;;;5024494;28;20220;-68
2023/09/22 05:35:35;;;;;;;2.90;1.70;;;18.20;99.90;;;;;;5024442;28;20205;-68
2023/09/22 05:38:02;;;;;;;2.07;1.43;;;18.20;99.90;;;;;;5024804;28;20312;-68
2023/09/22 05:40:33;;;;;;;2.10;1.70;;;18.00;99.90;;;;;;5024166;28;20681;-68
2023/09/22 05:43:01;;;;;;;1.53;1.47;;;17.90;99.90;;;;;;5024445;28;20304;-68
2023/09/22 05:45:28;;;;;;;4.03;1.90;;;17.80;99.90;;;;;;5024072;28;20204;-68
2023/09/22 05:47:56;;;;;;;1.80;1.70;;;17.90;99.90;;;;;;5024112;28;20750;-68
2023/09/22 05:50:23;;;;;;;2.73;1.70;;;18.00;99.90;;;;;;5023840;28;20331;-68
2023/09/22 05:52:51;;;;;;;1.87;1.40;;;17.90;99.90;;;;;;5024091;28;20248;-68
2023/09/22 05:55:19;;;;;;;1.80;1.67;;;17.80;99.90;;;;;;5024028;28;20244;-68
2023/09/22 05:57:47;;;;;;;2.63;1.70;;;17.80;99.90;;;;;;5024303;28;20213;-68
2023/09/22 06:00:16;;;;;;;2.17;1.83;;;17.80;99.90;;;;;;5025925;28;20209;-68
2023/09/22 06:02:47;;;;;;;2.53;1.40;;;17.90;99.90;;;;;;5027909;28;20213;-68
2023/09/22 06:05:15;;;;;;;1.77;1.67;;;18.00;99.90;;;;;;5028595;28;20204;-68
2023/09/22 06:07:42;;;;;;;1.70;1.60;;;18.10;99.90;;;;;;5027583;28;20205;-68
2023/09/22 06:10:09;;;;;;;1.97;1.77;;;18.00;99.90;;;;;;5027402;28;20331;-69
2023/09/22 06:12:37;;;;;;;1.60;1.50;;;17.90;99.90;;;;;;5027503;28;20675;-68
2023/09/22 06:15:07;;;;;;;1.60;1.50;;;17.90;99.90;;;;;;5028293;28;20217;-68
2023/09/22 06:17:35;;;;;;;1.90;1.80;;;17.80;99.90;;;;;;5027586;28;20211;-68
2023/09/22 06:20:13;;;;;;;1.87;1.77;;;17.80;99.90;;;;;;5027728;28;20217;-69
2023/09/22 06:22:41;;;;;;;1.97;1.87;;;17.90;99.90;;;;;;5027649;28;20240;-69
2023/09/22 06:25:09;;;;;;;1.97;1.70;;;18.00;99.90;;;;;;5027810;28;20209;-68
2023/09/22 06:27:36;;;;;;;1.80;1.70;;;18.00;99.90;;;;;;5027465;28;20208;-69
2023/09/22 06:30:11;;;;;;;1.50;1.40;;;17.90;99.90;;;;;;5027094;28;20757;-68
2023/09/22 06:32:41;;;;;;;4.50;1.90;;;18.00;99.90;;;;;;5027139;28;20600;-68
2023/09/22 06:35:10;;;;;;;1.70;1.60;;;18.10;99.90;;;;;;5027357;28;20193;-68
2023/09/22 06:37:37;;;;;;;1.40;1.30;;;18.10;99.90;;;;;;5027433;28;20532;-68
2023/09/22 06:40:11;;;;;;;1.60;1.50;;;18.10;99.90;;;;;;5027424;28;20742;-68
2023/09/22 06:42:40;;;;;;;2.13;1.63;;;18.30;99.90;;;;;;5027804;28;20315;-68
2023/09/22 06:45:10;;;;;;;1.73;1.63;;;18.30;99.90;;;;;;5027503;28;20224;-68
2023/09/22 06:47:37;;;;;;;1.30;1.30;;;18.40;99.90;;;;;;5027742;28;20572;-69
2023/09/22 06:50:08;;;;;;;1.90;1.70;;;18.40;99.90;;;;;;5027651;28;20236;-68
2023/09/22 06:52:36;;;;;;;1.60;1.50;;;18.30;99.90;;;;;;5027367;28;20204;-68
2023/09/22 06:55:03;;;;;;;1.83;1.73;;;18.40;99.90;;;;;;5027806;28;20339;-68
2023/09/22 06:57:32;;;;;;;2.27;2.03;;;18.60;99.90;;;;;;5027520;28;20290;-68
2023/09/22 06:59:59;;;;;;;3.53;1.73;;;18.50;99.90;;;;;;5026767;28;20212;-69
2023/09/22 07:02:28;;;;;;;2.60;1.87;;;18.60;99.90;;;;;;5027194;28;20667;-68
2023/09/22 07:04:56;;;;;;;3.20;1.70;;;18.50;99.90;;;;;;5027003;28;20208;-69
2023/09/22 07:07:23;;;;;;;1.33;1.30;;;18.40;99.90;;;;;;5026558;28;20294;-68
2023/09/22 07:09:50;;;;;;;1.70;1.60;;;18.20;99.90;;;;;;5026806;28;20307;-68
2023/09/22 07:12:17;;;;;;;2.30;1.60;;;18.30;99.90;;;;;;5025238;28;20209;-68
2023/09/22 07:14:43;;;;;;;2.40;1.50;;;18.30;99.90;;;;;;5026366;28;20219;-68
2023/09/22 07:17:10;;;;;;;1.67;1.40;;;18.30;99.90;;;;;;5026278;28;20285;-69
2023/09/22 07:19:40;;;;;;;1.83;1.60;;;18.20;99.90;;;;;;5026925;28;20940;-69
2023/09/22 07:22:08;;;;;;;1.80;1.70;;;18.30;99.90;;;;;;5026223;28;20225;-68
2023/09/22 07:24:35;;;;;;;2.93;1.63;;;18.20;99.90;;;;;;5026293;28;20686;-68
2023/09/22 07:27:05;;;;;;;1.83;1.70;;;18.20;99.90;;;;;;5026732;28;20230;-68
2023/09/22 07:29:32;;;;;;;2.93;1.50;;;18.20;99.90;;;;;;5026407;28;20593;-68
2023/09/22 07:31:59;;;;;;;1.80;1.70;;;18.40;99.90;;;;;;5027004;28;20730;-68
2023/09/22 07:34:26;;;;;;;1.83;1.50;;;18.50;99.90;;;;;;5026387;28;20209;-68
2023/09/22 07:36:55;;;;;;;2.03;1.20;;;18.50;99.90;;;;;;5026868;28;20205;-68
2023/09/22 07:39:22;;;;;;;2.00;1.80;;;18.60;99.90;;;;;;5026629;28;20236;-68
2023/09/22 07:41:48;;;;;;;6.10;1.60;;;18.70;99.90;;;;;;5026259;28;20735;-68
2023/09/22 07:44:18;;;;;;;1.10;1.10;;;18.70;99.90;;;;;;5025576;28;20771;-68
2023/09/22 07:46:45;;;;;;;1.77;1.30;;;18.50;99.90;;;;;;5026096;28;20204;-68
2023/09/22 07:49:12;;;;;;;1.60;1.50;;;18.40;99.90;;;;;;5025978;28;20232;-68
2023/09/22 07:51:39;;;;;;;1.37;1.27;;;18.50;99.90;;;;;;5025884;28;20262;-68
2023/09/22 07:54:08;;;;;;;2.53;1.50;;;18.60;99.90;;;;;;5025386;28;20333;-68
2023/09/22 07:56:37;;;;;;;1.60;1.50;;;18.80;99.90;;;;;;5025470;28;20213;-68
2023/09/22 07:59:04;;;;;;;2.33;1.40;;;18.90;99.90;;;;;;5026038;28;20308;-68
2023/09/22 08:01:31;;;;;;;2.37;1.33;;;19.00;99.90;;;;;;5025910;28;20299;-68
2023/09/22 08:03:58;;;;;;;1.50;1.40;;;19.00;99.90;;;;;;5025716;28;20216;-69
2023/09/22 08:06:27;;;;;;;4.53;1.60;;;18.90;99.90;;;;;;5020095;28;20679;-68
2023/09/22 08:08:53;;;;;;;2.10;1.83;;;18.60;99.90;;;;;;5010737;28;20583;-68
2023/09/22 08:11:22;;;;;;;3.03;1.50;;;18.60;99.90;;;;;;5025779;28;20351;-69
2023/09/22 08:13:49;;;;;;;2.47;1.90;;;18.50;99.90;;;;;;5025408;28;20710;-69
2023/09/22 08:16:17;;;;;;;1.27;1.17;;;18.40;99.90;;;;;;5025738;28;20209;-69
2023/09/22 08:18:44;;;;;;;1.57;1.47;;;18.60;99.90;;;;;;5025342;28;20209;-69
2023/09/22 08:21:11;;;;;;;2.50;1.47;;;18.80;99.90;;;;;;5025244;28;20667;-69
2023/09/22 08:23:38;;;;;;;1.50;1.40;;;18.70;99.90;;;;;;5025342;28;20323;-68
2023/09/22 08:26:05;;;;;;;2.60;1.70;;;18.80;99.90;;;;;;5025339;28;20244;-68
2023/09/22 08:28:34;;;;;;;2.73;1.70;;;18.80;99.90;;;;;;5025451;28;20208;-68
2023/09/22 08:31:01;;;;;;;3.77;1.80;;;18.90;99.90;;;;;;5025591;28;20267;-68
2023/09/22 08:33:29;;;;;;;3.50;1.70;;;18.90;99.90;;;;;;5025248;28;20212;-68
2023/09/22 08:35:56;;;;;;;2.33;1.80;;;18.80;99.90;;;;;;5025465;28;20214;-69
2023/09/22 08:38:24;;;;;;;1.53;1.40;;;18.70;99.90;;;;;;5025136;28;20244;-68
2023/09/22 08:40:52;;;;;;;2.57;1.47;;;18.70;99.90;;;;;;5025398;28;20235;-68
2023/09/22 08:43:19;;;;;;;1.37;1.37;;;18.70;99.90;;;;;;5025160;28;20208;-68
2023/09/22 08:45:47;;;;;;;1.07;1.07;;;18.60;99.90;;;;;;5024861;28;20303;-69
2023/09/22 08:48:14;;;;;;;1.40;1.30;;;18.40;99.90;;;;;;5025014;28;20304;-68
2023/09/22 08:50:41;;;;;;;1.23;1.13;;;18.30;99.90;;;;;;5024899;28;20319;-68
2023/09/22 08:53:08;;;;;;;2.00;1.57;;;18.50;99.90;;;;;;5024752;28;20335;-68
2023/09/22 08:55:35;;;;;;;1.40;1.27;;;18.60;99.90;;;;;;5025174;28;20255;-69
2023/09/22 08:58:02;;;;;;;1.20;1.10;;;18.50;99.90;;;;;;5025225;28;20210;-68
2023/09/22 09:00:30;;;;;;;1.37;1.27;;;18.60;99.90;;;;;;5024681;28;20211;-69
2023/09/22 09:03:06;;;;;;;1.50;1.40;;;18.50;99.90;;;;;;5024629;28;20592;-68
2023/09/22 09:05:33;;;;;;;2.73;1.20;;;18.30;99.90;;;;;;5025057;28;20732;-68
2023/09/22 09:08:11;;;;;;;1.77;1.27;;;18.40;99.90;;;;;;5025061;28;20240;-68
2023/09/22 09:10:39;;;;;;;1.20;1.20;;;18.40;99.90;;;;;;5024875;28;20897;-68
2023/09/22 09:13:07;;;;;;;1.70;1.10;;;18.50;99.90;;;;;;5025214;28;20248;-69
2023/09/22 09:15:42;;;;;;;6.63;6.03;;;18.30;99.90;;;;;;5024645;28;20303;-69
2023/09/22 09:18:12;;;;;;;1.10;1.00;;;18.20;99.90;;;;;;5025506;28;20605;-69
2023/09/22 09:20:41;;;;;;;1.97;1.10;;;18.20;99.90;;;;;;5025106;28;20212;-70
2023/09/22 09:23:13;;;;;;;1.30;1.20;;;18.20;99.90;;;;;;5024997;28;20212;-69
2023/09/22 09:25:42;;;;;;;2.10;1.33;;;18.20;99.90;;;;;;5024549;28;20890;-69
2023/09/22 09:28:10;;;;;;;1.50;1.17;;;18.10;99.90;;;;;;5024550;28;20205;-69
2023/09/22 09:30:38;;;;;;;1.20;1.10;;;18.10;99.90;;;;;;5024062;28;20777;-69
2023/09/22 09:33:10;;;;;;;1.30;1.20;;;18.00;99.90;;;;;;5024260;28;20205;-69
2023/09/22 09:35:39;;;;;;;1.40;1.30;;;18.10;99.90;;;;;;5027512;28;20192;-68
2023/09/22 09:38:08;;;;;;;1.50;1.10;;;18.10;99.90;;;;;;5028881;28;20208;-69
2023/09/22 09:40:37;;;;;;;3.20;1.03;;;18.10;99.90;;;;;;5028907;28;20362;-69
2023/09/22 09:43:10;;;;;;;1.30;1.20;;;18.00;99.90;;;;;;5028914;28;20208;-69
2023/09/22 09:45:45;;;;;;;2.00;1.10;;;18.00;99.90;;;;;;5028462;28;20283;-69
2023/09/22 09:48:16;;;;;;;2.20;1.20;;;18.10;99.90;;;;;;5028658;28;20299;-69
2023/09/22 09:50:47;;;;;;;2.80;1.33;;;18.10;99.90;;;;;;5028204;28;20303;-69
2023/09/22 09:53:31;;;;;;;1.10;1.00;;;18.00;99.90;;;;;;5028359;28;20347;-69
2023/09/22 09:56:00;;;;;;;1.73;1.10;;;18.10;99.90;;;;;;5028399;28;20209;-69
2023/09/22 09:58:29;;;;;;;1.27;1.10;;;18.20;99.90;;;;;;5028149;28;20745;-69
2023/09/22 10:00:57;;;;;;;1.07;1.07;;;18.20;99.90;;;;;;5028024;28;20749;-69
2023/09/22 10:03:25;;;;;;;1.10;1.10;;;18.30;99.90;;;;;;5027960;28;20640;-69
2023/09/22 10:05:55;;;;;;;1.70;1.10;;;18.30;99.90;;;;;;5028500;28;20209;-69
2023/09/22 10:08:23;;;;;;;1.13;1.03;;;18.50;99.90;;;;;;5028746;28;20205;-69
2023/09/22 10:10:52;;;;;;;1.27;1.27;;;18.60;99.90;;;;;;5028636;28;20257;-69
2023/09/22 10:13:20;;;;;;;2.03;1.10;;;18.60;99.90;;;;;;5028249;28;20309;-69
2023/09/22 10:15:55;;;;;;;2.10;0.97;;;18.40;99.90;;;;;;5028653;28;20247;-69
2023/09/22 10:18:44;;;;;;;2.20;1.30;;;18.40;99.90;;;;;;5027980;28;20282;-69
2023/09/22 10:21:33;;;;;;;2.53;1.17;;;18.30;99.90;;;;;;5027897;28;20209;-69
2023/09/22 10:24:32;;;;;;;1.40;1.30;;;18.40;99.90;;;;;;5028185;28;20565;-69
2023/09/22 10:27:09;;;;;;;1.60;1.20;;;18.30;99.90;;;;;;5004883;28;20204;-69
2023/09/22 10:29:45;;;;;;;1.43;1.23;;;18.40;99.90;;;;;;5024003;28;20679;-69
2023/09/22 10:32:28;;;;;;;1.50;1.10;;;18.30;99.90;;;;;;5028111;28;20216;-69
2023/09/22 10:34:57;;;;;;;1.10;1.10;;;18.30;99.90;;;;;;5027685;28;20742;-69
2023/09/22 10:37:27;;;;;;;1.40;1.30;;;18.30;99.90;;;;;;5027621;28;20217;-69
2023/09/22 10:39:57;;;;;;;1.40;0.97;;;18.30;99.90;;;;;;5027876;28;20201;-69
2023/09/22 10:42:25;;;;;;;1.97;1.20;;;18.40;99.90;;;;;;5027218;28;20300;-69
2023/09/22 10:44:58;;;;;;;1.03;0.87;;;18.50;99.90;;;;;;5017819;28;20232;-69
2023/09/22 10:47:28;;;;;;;1.17;1.00;;;18.60;99.90;;;;;;5007766;28;20212;-69
2023/09/22 10:49:54;;;;;;;1.13;1.13;;;18.70;99.90;;;;;;5007960;28;20205;-69
2023/09/22 10:52:21;;;;;;;1.10;1.10;;;18.60;99.90;;;;;;5021766;28;20272;-69
2023/09/22 10:54:49;;;;;;;1.03;1.00;;;18.70;99.90;;;;;;5027685;28;20302;-69
2023/09/22 10:57:27;;;;;;;1.30;1.20;;;18.70;99.90;;;;;;5027131;28;20300;-69
2023/09/22 10:59:56;;;;;;;1.10;1.00;;;18.60;99.90;;;;;;5027409;28;20209;-69
2023/09/22 11:02:25;;;;;;;0.90;0.90;;;18.80;99.90;;;;;;5027151;28;20208;-69
2023/09/22 11:04:53;;;;;;;1.23;1.20;;;18.90;99.90;;;;;;5027537;28;20291;-69
2023/09/22 11:07:36;;;;;;;2.33;1.00;;;19.10;99.90;;;;;;5026784;28;20623;-69
2023/09/22 11:10:06;;;;;;;1.10;1.03;;;19.20;99.90;;;;;;5027359;28;20280;-69
2023/09/22 11:12:33;;;;;;;1.30;1.10;;;19.40;99.90;;;;;;5026738;28;20236;-69
2023/09/22 11:15:02;;;;;;;1.13;0.90;;;19.50;99.90;;;;;;5026657;28;20213;-69
2023/09/22 11:17:39;;;;;;;0.90;0.90;;;19.50;99.90;;;;;;5026913;28;20320;-69
2023/09/22 11:20:12;;;;;;;2.07;1.20;;;19.60;99.90;;;;;;5027010;28;20208;-69
2023/09/22 11:22:40;;;;;;;1.00;1.00;;;19.70;99.90;;;;;;5026921;28;20342;-69
2023/09/22 11:25:10;;;;;;;1.33;1.10;;;19.70;99.90;;;;;;5026757;28;20212;-69
2023/09/22 11:27:47;;;;;;;0.93;0.87;;;19.70;99.90;;;;;;5026997;28;20247;-69
2023/09/22 11:30:16;;;;;;;3.90;1.37;;;19.70;99.90;;;;;;5026674;28;20244;-69
2023/09/22 11:32:44;;;;;;;1.57;0.90;;;19.40;99.90;;;;;;5026766;28;20240;-69
2023/09/22 11:35:28;;;;;;;3.10;1.27;;;19.20;99.90;;;;;;5026417;28;20248;-68
2023/09/22 11:37:55;;;;;;;1.10;1.10;;;19.30;99.90;;;;;;5026486;28;20924;-69
2023/09/22 11:40:27;;;;;;;2.63;1.30;;;19.30;99.90;;;;;;5026158;28;20235;-69
2023/09/22 11:42:55;;;;;;;3.43;1.20;;;19.20;99.90;;;;;;5026266;28;20259;-69
2023/09/22 11:45:25;;;;;;;1.27;1.10;;;19.20;99.90;;;;;;5025974;28;20821;-69
2023/09/22 11:48:05;;;;;;;1.40;1.10;;;19.30;99.90;;;;;;5026477;28;20216;-69
2023/09/22 11:50:32;;;;;;;1.93;1.27;;;19.40;99.90;;;;;;5026104;28;20697;-69
2023/09/22 11:53:10;;;;;;;1.10;1.07;;;19.50;99.90;;;;;;5025850;28;20302;-69
2023/09/22 11:55:38;;;;;;;1.10;1.00;;;19.60;99.90;;;;;;5026059;28;20224;-69
2023/09/22 11:58:06;;;;;;;1.27;1.27;;;19.70;99.90;;;;;;5025326;28;20275;-69
2023/09/22 12:00:33;;;;;;;2.80;1.47;;;19.70;99.90;;;;;;5026002;28;20579;-69
2023/09/22 12:03:00;;;;;;;1.53;1.30;;;19.80;99.90;;;;;;5026384;28;20216;-69
2023/09/22 12:05:27;;;;;;;1.20;1.20;;;19.80;99.90;;;;;;5025665;28;20254;-69
2023/09/22 12:07:54;;;;;;;1.47;1.10;;;19.70;99.90;;;;;;5025386;28;20647;-69
2023/09/22 12:10:22;;;;;;;2.10;1.30;;;19.80;99.90;;;;;;5025391;28;20219;-69
2023/09/22 12:12:50;;;;;;;1.80;1.50;;;19.90;99.90;;;;;;5025663;28;20239;-69
2023/09/22 12:15:17;;;;;;;1.63;1.10;;;19.60;99.90;;;;;;5025537;28;20322;-69
2023/09/22 12:17:46;;;;;;;1.63;1.20;;;19.50;99.90;;;;;;5025744;28;20252;-69
2023/09/22 12:20:13;;;;;;;1.17;1.17;;;19.40;99.90;;;;;;5024971;28;20299;-69
2023/09/22 12:22:40;;;;;;;1.10;1.10;;;19.40;99.90;;;;;;5025440;28;20244;-69
2023/09/22 12:25:08;;;;;;;1.33;1.20;;;19.20;99.90;;;;;;5025539;28;20232;-69
2023/09/22 12:27:35;;;;;;;0.73;0.73;;;19.10;99.90;;;;;;5024946;28;20209;-69
2023/09/22 12:30:03;;;;;;;1.43;1.00;;;19.00;99.90;;;;;;5025050;28;20251;-69
2023/09/22 12:32:30;;;;;;;1.63;1.20;;;18.70;99.90;;;;;;5025112;28;20262;-69
2023/09/22 12:34:59;;;;;;;1.47;1.20;;;18.50;99.90;;;;;;5025355;28;20263;-69
2023/09/22 12:37:26;;;;;;;1.87;0.97;;;18.40;99.90;;;;;;5025091;28;20636;-69
2023/09/22 12:39:53;;;;;;;1.20;0.90;;;18.40;99.90;;;;;;5025276;28;20799;-69
2023/09/22 12:42:20;;;;;;;2.40;0.80;;;18.40;99.90;;;;;;5025705;28;20291;-68
2023/09/22 12:44:46;;;;;;;1.67;0.90;;;18.40;99.90;;;;;;5025227;28;20209;-69
2023/09/22 12:47:15;;;;;;;1.53;0.90;;;18.40;99.90;;;;;;5025155;28;20614;-69
2023/09/22 12:49:42;;;;;;;1.20;1.20;;;18.50;99.90;;;;;;5024727;28;20236;-69
2023/09/22 12:52:09;;;;;;;1.53;1.07;;;18.60;99.90;;;;;;5025039;28;20324;-69
2023/09/22 12:54:36;;;;;;;1.37;1.00;;;18.70;99.90;;;;;;5024816;28;20766;-69